createdAt,value
2019-04-22T00:03:06.590Z,36.60
2019-04-22T00:13:43.543Z,38.40
2019-04-22T00:23:39.199Z,34.63
2019-04-22T00:33:45.094Z,36.83
2019-04-22T00:43:59.639Z,41.10
2019-04-22T00:54:03.395Z,38.60
2019-04-22T01:04:15.805Z,37.17
2019-04-22T01:14:12.553Z,38.27
2019-04-22T01:24:20.446Z,32.17
2019-04-22T01:34:19.783Z,35.17
2019-04-22T02:04:53.540Z,36.17
2019-04-22T02:15:13.169Z,35.27
2019-04-22T02:25:28.478Z,34.53
2019-04-22T02:35:23.856Z,35.57
2019-04-22T02:45:26.586Z,37.23
2019-04-22T02:55:27.576Z,36.23
2019-04-22T03:15:50.897Z,31.80
2019-04-22T03:36:25.052Z,25.33
2019-04-22T03:46:02.038Z,26.90
2019-04-22T03:56:49.583Z,29.73
2019-04-22T04:06:29.639Z,26.20
2019-04-22T04:16:36.877Z,27.57
2019-04-22T05:07:09.191Z,20.97
2019-04-22T05:17:15.978Z,25.10
2019-04-22T05:37:22.790Z,29.03
2019-04-22T05:47:26.179Z,26.03
2019-04-22T05:57:31.639Z,25.83
2019-04-22T06:07:40.326Z,25.87
2019-04-22T06:17:54.785Z,25.23
2019-04-22T06:27:58.832Z,24.23
2019-04-22T06:48:13.128Z,23.30
2019-04-22T06:58:15.270Z,20.30
2019-04-22T07:29:01.218Z,24.87
2019-04-22T07:39:35.441Z,23.97
2019-04-22T07:49:48.963Z,23.30
2019-04-22T08:00:02.912Z,23.43
2019-04-22T08:21:07.632Z,21.90
2019-04-22T08:31:18.029Z,22.87
2019-04-22T09:01:32.669Z,19.30
2019-04-22T09:11:52.946Z,17.20
2019-04-22T09:22:01.908Z,17.80
2019-04-22T09:42:14.523Z,17.03
2019-04-22T09:52:15.137Z,17.20
2019-04-22T10:12:37.029Z,22.27
2019-04-22T10:32:47.577Z,19.73
2019-04-22T10:42:33.493Z,17.40
2019-04-22T11:15:18.079Z,7.60
2019-04-22T11:25:12.019Z,5.60
2019-04-22T11:35:21.880Z,5.20
2019-04-22T11:45:28.774Z,5.43
2019-04-22T11:55:34.952Z,5.03
2019-04-22T12:05:41.685Z,6.07
2019-04-22T12:15:49.023Z,5.67
2019-04-22T12:26:02.073Z,5.07
2019-04-22T12:36:02.394Z,5.43
2019-04-22T12:46:08.370Z,4.80
2019-04-22T12:56:15.212Z,4.93
2019-04-22T13:06:23.645Z,5.60
2019-04-22T13:16:29.422Z,4.30
2019-04-22T13:26:35.947Z,5.90
2019-04-22T13:36:48.805Z,6.57
2019-04-22T13:47:11.047Z,6.37
2019-04-22T13:57:19.716Z,4.70
2019-04-22T14:07:10.481Z,2.60
2019-04-22T14:17:18.811Z,3.07
2019-04-22T14:27:34.679Z,2.63
2019-04-22T14:37:32.194Z,3.87
2019-04-22T14:48:07.122Z,3.40
2019-04-22T14:57:45.018Z,3.50
2019-04-22T15:07:50.511Z,4.50
2019-04-22T15:18:13.935Z,4.13
2019-04-22T15:28:19.725Z,3.97
2019-04-22T15:38:26.186Z,6.43
2019-04-22T15:48:37.769Z,5.17
2019-04-22T15:58:43.774Z,6.67
2019-04-22T16:08:49.848Z,6.40
2019-04-22T16:18:56.258Z,7.57
2019-04-22T16:29:03.226Z,6.20
2019-04-22T16:39:11.250Z,7.20
2019-04-22T16:49:17.217Z,4.47
2019-04-22T16:59:22.728Z,5.90
2019-04-22T17:09:29.765Z,7.03
2019-04-22T17:19:35.574Z,10.50
2019-04-22T17:29:41.289Z,9.27
2019-04-22T17:40:02.456Z,8.90
2019-04-22T17:50:24.206Z,8.53
2019-04-22T18:00:20.407Z,6.70
2019-04-22T18:10:35.642Z,12.90
2019-04-22T18:20:35.333Z,21.70
2019-04-22T18:30:38.675Z,9.90
2019-04-22T18:40:53.713Z,9.03
2019-04-22T18:51:20.285Z,8.27
2019-04-22T19:00:59.553Z,8.33
2019-04-22T19:11:35.574Z,10.17
2019-04-22T19:21:32.676Z,9.37
2019-04-22T19:31:45.498Z,9.27
2019-04-22T19:41:58.727Z,9.67
2019-04-22T19:52:12.825Z,10.83
2019-04-22T20:02:22.212Z,10.27
2019-04-22T20:12:30.571Z,10.47
2019-04-22T20:22:38.346Z,9.80
2019-04-22T20:32:44.523Z,9.10
2019-04-22T20:43:04.006Z,9.60
2019-04-22T20:53:06.892Z,9.23
2019-04-22T21:03:00.971Z,9.23
2019-04-22T21:13:15.577Z,8.80
2019-04-22T21:23:19.864Z,8.20
2019-04-22T21:33:26.966Z,7.43
2019-04-22T21:43:42.437Z,8.17
2019-04-22T21:53:58.694Z,7.57
2019-04-22T22:03:55.716Z,7.57
2019-04-22T22:14:01.927Z,7.50
2019-04-22T22:24:13.113Z,6.47
2019-04-22T22:34:16.618Z,6.90
2019-04-22T22:44:11.572Z,7.63
2019-04-22T22:54:30.065Z,7.40
2019-04-22T23:04:39.842Z,7.63
2019-04-22T23:14:44.107Z,7.40
2019-04-22T23:24:50.294Z,6.40
2019-04-22T23:35:03.185Z,6.90
2019-04-22T23:45:15.725Z,6.47
2019-04-22T23:55:21.589Z,6.40
